sensor_id;sensor_type;location;lat;lon;timestamp;temperature;humidity
56332;DHT22;42237;53.340;6.812;2022-08-07T00:00:50;13.00;99.90
56332;DHT22;42237;53.340;6.812;2022-08-07T00:03:16;13.00;99.90
56332;DHT22;42237;53.340;6.812;2022-08-07T00:05:42;13.00;99.90
56332;DHT22;42237;53.340;6.812;2022-08-07T00:08:08;13.00;99.90
56332;DHT22;42237;53.340;6.812;2022-08-07T00:10:34;12.90;99.90
56332;DHT22;42237;53.340;6.812;2022-08-07T00:13:03;12.90;99.90
56332;DHT22;42237;53.340;6.812;2022-08-07T00:15:30;12.90;99.90
56332;DHT22;42237;53.340;6.812;2022-08-07T00:17:56;12.90;99.90
56332;DHT22;42237;53.340;6.812;2022-08-07T00:20:23;12.80;99.90
56332;DHT22;42237;53.340;6.812;2022-08-07T00:22:48;12.80;99.90
56332;DHT22;42237;53.340;6.812;2022-08-07T00:25:14;12.90;99.90
56332;DHT22;42237;53.340;6.812;2022-08-07T00:27:40;12.90;99.90
56332;DHT22;42237;53.340;6.812;2022-08-07T00:30:06;12.90;99.90
56332;DHT22;42237;53.340;6.812;2022-08-07T00:32:32;12.90;99.90
56332;DHT22;42237;53.340;6.812;2022-08-07T00:34:57;12.90;99.90
56332;DHT22;42237;53.340;6.812;2022-08-07T00:37:23;12.90;99.90
56332;DHT22;42237;53.340;6.812;2022-08-07T00:39:51;12.80;99.90
56332;DHT22;42237;53.340;6.812;2022-08-07T00:42:19;12.80;99.90
56332;DHT22;42237;53.340;6.812;2022-08-07T00:44:45;12.70;99.90
56332;DHT22;42237;53.340;6.812;2022-08-07T00:47:11;12.70;99.90
56332;DHT22;42237;53.340;6.812;2022-08-07T00:49:37;12.70;99.90
56332;DHT22;42237;53.340;6.812;2022-08-07T00:52:07;12.70;99.90
56332;DHT22;42237;53.340;6.812;2022-08-07T00:54:33;12.70;99.90
56332;DHT22;42237;53.340;6.812;2022-08-07T00:56:59;12.60;99.90
56332;DHT22;42237;53.340;6.812;2022-08-07T00:59:24;12.60;99.90
56332;DHT22;42237;53.340;6.812;2022-08-07T01:01:50;12.60;99.90
56332;DHT22;42237;53.340;6.812;2022-08-07T01:04:16;12.60;99.90
56332;DHT22;42237;53.340;6.812;2022-08-07T01:06:43;12.60;99.90
56332;DHT22;42237;53.340;6.812;2022-08-07T01:09:09;12.60;99.90
56332;DHT22;42237;53.340;6.812;2022-08-07T01:11:35;12.50;99.90
56332;DHT22;42237;53.340;6.812;2022-08-07T01:14:02;12.50;99.90
56332;DHT22;42237;53.340;6.812;2022-08-07T01:16:28;12.50;99.90
56332;DHT22;42237;53.340;6.812;2022-08-07T01:18:53;12.50;99.90
56332;DHT22;42237;53.340;6.812;2022-08-07T01:21:19;12.50;99.90
56332;DHT22;42237;53.340;6.812;2022-08-07T01:23:50;12.40;99.90
56332;DHT22;42237;53.340;6.812;2022-08-07T01:26:17;12.40;99.90
56332;DHT22;42237;53.340;6.812;2022-08-07T01:28:50;12.30;99.90
56332;DHT22;42237;53.340;6.812;2022-08-07T01:31:18;12.40;99.90
56332;DHT22;42237;53.340;6.812;2022-08-07T01:33:45;12.30;99.90
56332;DHT22;42237;53.340;6.812;2022-08-07T01:36:11;12.30;99.90
56332;DHT22;42237;53.340;6.812;2022-08-07T01:38:38;12.30;99.90
56332;DHT22;42237;53.340;6.812;2022-08-07T01:41:05;12.30;99.90
56332;DHT22;42237;53.340;6.812;2022-08-07T01:43:32;12.30;99.90
56332;DHT22;42237;53.340;6.812;2022-08-07T01:45:58;12.30;99.90
56332;DHT22;42237;53.340;6.812;2022-08-07T01:48:25;12.20;99.90
56332;DHT22;42237;53.340;6.812;2022-08-07T01:51:02;12.20;99.90
56332;DHT22;42237;53.340;6.812;2022-08-07T01:53:32;12.20;99.90
56332;DHT22;42237;53.340;6.812;2022-08-07T01:56:06;12.10;99.90
56332;DHT22;42237;53.340;6.812;2022-08-07T01:58:40;12.10;99.90
56332;DHT22;42237;53.340;6.812;2022-08-07T02:01:13;12.10;99.90
56332;DHT22;42237;53.340;6.812;2022-08-07T02:03:42;12.10;99.90
56332;DHT22;42237;53.340;6.812;2022-08-07T02:06:13;12.10;99.90
56332;DHT22;42237;53.340;6.812;2022-08-07T02:08:41;12.00;99.90
56332;DHT22;42237;53.340;6.812;2022-08-07T02:11:09;12.00;99.90
56332;DHT22;42237;53.340;6.812;2022-08-07T02:13:36;12.00;99.90
56332;DHT22;42237;53.340;6.812;2022-08-07T02:16:03;12.00;99.90
56332;DHT22;42237;53.340;6.812;2022-08-07T02:18:32;12.00;99.90
56332;DHT22;42237;53.340;6.812;2022-08-07T02:21:00;12.00;99.90
56332;DHT22;42237;53.340;6.812;2022-08-07T02:23:29;12.00;99.90
56332;DHT22;42237;53.340;6.812;2022-08-07T02:25:58;12.00;99.90
56332;DHT22;42237;53.340;6.812;2022-08-07T02:28:28;12.00;99.90
56332;DHT22;42237;53.340;6.812;2022-08-07T02:30:54;12.00;99.90
56332;DHT22;42237;53.340;6.812;2022-08-07T02:33:23;12.00;99.90
56332;DHT22;42237;53.340;6.812;2022-08-07T02:35:50;12.00;99.90
56332;DHT22;42237;53.340;6.812;2022-08-07T02:38:17;12.00;99.90
56332;DHT22;42237;53.340;6.812;2022-08-07T02:40:44;12.00;99.90
56332;DHT22;42237;53.340;6.812;2022-08-07T02:43:11;12.00;99.90
56332;DHT22;42237;53.340;6.812;2022-08-07T02:45:39;12.00;99.90
56332;DHT22;42237;53.340;6.812;2022-08-07T02:48:07;12.00;99.90
56332;DHT22;42237;53.340;6.812;2022-08-07T02:50:39;12.00;99.90
56332;DHT22;42237;53.340;6.812;2022-08-07T02:53:08;12.00;99.90
56332;DHT22;42237;53.340;6.812;2022-08-07T02:55:38;12.10;99.90
56332;DHT22;42237;53.340;6.812;2022-08-07T02:58:13;12.00;99.90
56332;DHT22;42237;53.340;6.812;2022-08-07T03:00:40;12.10;99.90
56332;DHT22;42237;53.340;6.812;2022-08-07T03:03:08;12.00;99.90
56332;DHT22;42237;53.340;6.812;2022-08-07T03:05:36;12.00;99.90
56332;DHT22;42237;53.340;6.812;2022-08-07T03:08:05;12.00;99.90
56332;DHT22;42237;53.340;6.812;2022-08-07T03:10:35;12.00;99.90
56332;DHT22;42237;53.340;6.812;2022-08-07T03:13:01;11.90;99.90
56332;DHT22;42237;53.340;6.812;2022-08-07T03:15:28;12.00;99.90
56332;DHT22;42237;53.340;6.812;2022-08-07T03:17:54;12.00;99.90
56332;DHT22;42237;53.340;6.812;2022-08-07T03:20:21;12.00;99.90
56332;DHT22;42237;53.340;6.812;2022-08-07T03:22:49;12.00;99.90
56332;DHT22;42237;53.340;6.812;2022-08-07T03:25:16;12.00;99.90
56332;DHT22;42237;53.340;6.812;2022-08-07T03:27:43;11.90;99.90
56332;DHT22;42237;53.340;6.812;2022-08-07T03:30:10;11.90;99.90
56332;DHT22;42237;53.340;6.812;2022-08-07T03:32:38;11.90;99.90
56332;DHT22;42237;53.340;6.812;2022-08-07T03:35:16;11.90;99.90
56332;DHT22;42237;53.340;6.812;2022-08-07T03:37:43;11.90;99.90
56332;DHT22;42237;53.340;6.812;2022-08-07T03:40:10;11.90;99.90
56332;DHT22;42237;53.340;6.812;2022-08-07T03:42:37;11.80;99.90
56332;DHT22;42237;53.340;6.812;2022-08-07T03:45:03;11.80;99.90
56332;DHT22;42237;53.340;6.812;2022-08-07T03:47:29;11.80;99.90
56332;DHT22;42237;53.340;6.812;2022-08-07T03:49:58;11.80;99.90
56332;DHT22;42237;53.340;6.812;2022-08-07T03:52:27;11.80;99.90
56332;DHT22;42237;53.340;6.812;2022-08-07T03:54:57;11.80;99.90
56332;DHT22;42237;53.340;6.812;2022-08-07T03:57:25;11.70;99.90
56332;DHT22;42237;53.340;6.812;2022-08-07T03:59:52;11.70;99.90
56332;DHT22;42237;53.340;6.812;2022-08-07T04:02:18;11.70;99.90
56332;DHT22;42237;53.340;6.812;2022-08-07T04:04:44;11.60;99.90
56332;DHT22;42237;53.340;6.812;2022-08-07T04:07:15;11.60;99.90
56332;DHT22;42237;53.340;6.812;2022-08-07T04:09:43;11.60;99.90
56332;DHT22;42237;53.340;6.812;2022-08-07T04:12:09;11.70;99.90
56332;DHT22;42237;53.340;6.812;2022-08-07T04:14:35;11.70;99.90
56332;DHT22;42237;53.340;6.812;2022-08-07T04:17:01;11.70;99.90
56332;DHT22;42237;53.340;6.812;2022-08-07T04:19:27;11.70;99.90
56332;DHT22;42237;53.340;6.812;2022-08-07T04:21:53;11.70;99.90
56332;DHT22;42237;53.340;6.812;2022-08-07T04:24:20;11.80;99.90
56332;DHT22;42237;53.340;6.812;2022-08-07T04:26:46;11.80;99.90
56332;DHT22;42237;53.340;6.812;2022-08-07T04:29:12;11.80;99.90
56332;DHT22;42237;53.340;6.812;2022-08-07T04:31:38;11.90;99.90
56332;DHT22;42237;53.340;6.812;2022-08-07T04:34:05;11.90;99.90
56332;DHT22;42237;53.340;6.812;2022-08-07T04:36:31;11.90;99.90
56332;DHT22;42237;53.340;6.812;2022-08-07T04:38:57;11.90;99.90
56332;DHT22;42237;53.340;6.812;2022-08-07T04:41:23;12.00;99.90
56332;DHT22;42237;53.340;6.812;2022-08-07T04:43:49;12.00;99.90
56332;DHT22;42237;53.340;6.812;2022-08-07T04:46:30;12.00;99.90
56332;DHT22;42237;53.340;6.812;2022-08-07T04:49:09;12.00;99.90
56332;DHT22;42237;53.340;6.812;2022-08-07T04:55:29;12.10;99.90
56332;DHT22;42237;53.340;6.812;2022-08-07T04:57:54;12.10;99.90
56332;DHT22;42237;53.340;6.812;2022-08-07T05:00:37;12.10;99.90
56332;DHT22;42237;53.340;6.812;2022-08-07T05:03:28;12.10;99.90
56332;DHT22;42237;53.340;6.812;2022-08-07T05:06:02;12.10;99.90
56332;DHT22;42237;53.340;6.812;2022-08-07T05:08:40;12.20;99.90
56332;DHT22;42237;53.340;6.812;2022-08-07T05:11:15;12.20;99.90
56332;DHT22;42237;53.340;6.812;2022-08-07T05:13:52;12.20;99.90
56332;DHT22;42237;53.340;6.812;2022-08-07T05:16:20;12.30;99.90
56332;DHT22;42237;53.340;6.812;2022-08-07T05:19:04;12.30;99.90
56332;DHT22;42237;53.340;6.812;2022-08-07T05:21:33;12.30;99.90
56332;DHT22;42237;53.340;6.812;2022-08-07T05:24:08;12.30;99.90
56332;DHT22;42237;53.340;6.812;2022-08-07T05:26:35;12.40;99.90
56332;DHT22;42237;53.340;6.812;2022-08-07T05:29:03;12.40;99.90
56332;DHT22;42237;53.340;6.812;2022-08-07T05:31:32;12.50;99.90
56332;DHT22;42237;53.340;6.812;2022-08-07T05:34:00;12.60;99.90
56332;DHT22;42237;53.340;6.812;2022-08-07T05:36:27;12.60;99.90
56332;DHT22;42237;53.340;6.812;2022-08-07T05:38:54;12.60;99.90
56332;DHT22;42237;53.340;6.812;2022-08-07T05:41:22;12.70;99.90
56332;DHT22;42237;53.340;6.812;2022-08-07T05:43:53;12.80;99.90
56332;DHT22;42237;53.340;6.812;2022-08-07T05:46:20;12.80;99.90
56332;DHT22;42237;53.340;6.812;2022-08-07T05:48:48;12.90;99.90
56332;DHT22;42237;53.340;6.812;2022-08-07T05:51:14;12.90;99.90
56332;DHT22;42237;53.340;6.812;2022-08-07T05:53:41;13.00;99.90
56332;DHT22;42237;53.340;6.812;2022-08-07T05:56:12;13.00;99.90
56332;DHT22;42237;53.340;6.812;2022-08-07T05:58:38;13.10;99.90
56332;DHT22;42237;53.340;6.812;2022-08-07T06:01:06;13.10;99.90
56332;DHT22;42237;53.340;6.812;2022-08-07T06:03:32;13.30;99.90
56332;DHT22;42237;53.340;6.812;2022-08-07T06:06:00;13.30;99.90
56332;DHT22;42237;53.340;6.812;2022-08-07T06:08:26;13.40;99.90
56332;DHT22;42237;53.340;6.812;2022-08-07T06:10:53;13.40;99.90
56332;DHT22;42237;53.340;6.812;2022-08-07T06:13:19;13.60;99.90
56332;DHT22;42237;53.340;6.812;2022-08-07T06:15:47;13.70;99.90
56332;DHT22;42237;53.340;6.812;2022-08-07T06:18:13;13.70;99.90
56332;DHT22;42237;53.340;6.812;2022-08-07T06:20:42;13.80;99.90
56332;DHT22;42237;53.340;6.812;2022-08-07T06:23:08;13.90;99.90
56332;DHT22;42237;53.340;6.812;2022-08-07T06:25:35;13.90;99.90
56332;DHT22;42237;53.340;6.812;2022-08-07T06:28:05;14.00;99.90
56332;DHT22;42237;53.340;6.812;2022-08-07T06:30:33;14.10;99.90
56332;DHT22;42237;53.340;6.812;2022-08-07T06:32:59;14.10;99.90
56332;DHT22;42237;53.340;6.812;2022-08-07T06:35:25;14.20;99.90
56332;DHT22;42237;53.340;6.812;2022-08-07T06:37:51;14.30;99.90
56332;DHT22;42237;53.340;6.812;2022-08-07T06:40:16;14.30;99.90
56332;DHT22;42237;53.340;6.812;2022-08-07T06:42:47;14.40;99.90
56332;DHT22;42237;53.340;6.812;2022-08-07T06:45:16;14.50;99.90
56332;DHT22;42237;53.340;6.812;2022-08-07T06:47:42;14.50;99.90
56332;DHT22;42237;53.340;6.812;2022-08-07T06:50:08;14.60;99.90
56332;DHT22;42237;53.340;6.812;2022-08-07T06:52:37;14.70;99.90
56332;DHT22;42237;53.340;6.812;2022-08-07T06:55:05;14.70;99.90
56332;DHT22;42237;53.340;6.812;2022-08-07T06:57:34;14.80;99.90
56332;DHT22;42237;53.340;6.812;2022-08-07T07:00:02;14.90;99.90
56332;DHT22;42237;53.340;6.812;2022-08-07T07:02:28;15.00;99.90
56332;DHT22;42237;53.340;6.812;2022-08-07T07:04:54;15.00;99.90
56332;DHT22;42237;53.340;6.812;2022-08-07T07:07:20;15.10;99.90
56332;DHT22;42237;53.340;6.812;2022-08-07T07:09:49;15.10;99.90
56332;DHT22;42237;53.340;6.812;2022-08-07T07:12:22;15.20;99.90
56332;DHT22;42237;53.340;6.812;2022-08-07T07:14:58;15.30;99.90
56332;DHT22;42237;53.340;6.812;2022-08-07T07:17:36;15.30;99.90
56332;DHT22;42237;53.340;6.812;2022-08-07T07:20:07;15.40;99.90
56332;DHT22;42237;53.340;6.812;2022-08-07T07:22:34;15.40;99.90
56332;DHT22;42237;53.340;6.812;2022-08-07T07:25:02;15.50;99.90
56332;DHT22;42237;53.340;6.812;2022-08-07T07:27:31;15.60;99.90
56332;DHT22;42237;53.340;6.812;2022-08-07T07:29:59;15.60;99.90
56332;DHT22;42237;53.340;6.812;2022-08-07T07:32:29;15.70;99.90
56332;DHT22;42237;53.340;6.812;2022-08-07T07:34:58;15.70;99.90
56332;DHT22;42237;53.340;6.812;2022-08-07T07:37:25;15.80;99.90
56332;DHT22;42237;53.340;6.812;2022-08-07T07:39:57;15.90;99.90
56332;DHT22;42237;53.340;6.812;2022-08-07T07:42:25;15.90;99.90
56332;DHT22;42237;53.340;6.812;2022-08-07T07:44:52;16.00;99.90
56332;DHT22;42237;53.340;6.812;2022-08-07T07:47:18;16.00;99.90
56332;DHT22;42237;53.340;6.812;2022-08-07T07:49:47;16.10;99.90
56332;DHT22;42237;53.340;6.812;2022-08-07T07:52:16;16.10;99.90
56332;DHT22;42237;53.340;6.812;2022-08-07T07:54:44;16.20;99.90
56332;DHT22;42237;53.340;6.812;2022-08-07T07:57:11;16.30;99.90
56332;DHT22;42237;53.340;6.812;2022-08-07T07:59:39;16.30;99.90
56332;DHT22;42237;53.340;6.812;2022-08-07T08:02:06;16.40;99.90
56332;DHT22;42237;53.340;6.812;2022-08-07T08:04:35;16.50;99.90
56332;DHT22;42237;53.340;6.812;2022-08-07T08:07:01;16.50;99.90
56332;DHT22;42237;53.340;6.812;2022-08-07T08:09:29;16.60;99.90
56332;DHT22;42237;53.340;6.812;2022-08-07T08:11:57;16.70;99.90
56332;DHT22;42237;53.340;6.812;2022-08-07T08:14:24;16.70;99.90
56332;DHT22;42237;53.340;6.812;2022-08-07T08:16:50;16.80;99.90
56332;DHT22;42237;53.340;6.812;2022-08-07T08:19:25;16.80;99.90
56332;DHT22;42237;53.340;6.812;2022-08-07T08:21:52;16.80;99.90
56332;DHT22;42237;53.340;6.812;2022-08-07T08:24:42;16.90;99.90
56332;DHT22;42237;53.340;6.812;2022-08-07T08:27:31;16.90;99.90
56332;DHT22;42237;53.340;6.812;2022-08-07T08:30:05;17.00;99.90
56332;DHT22;42237;53.340;6.812;2022-08-07T08:32:36;17.10;99.90
56332;DHT22;42237;53.340;6.812;2022-08-07T08:35:03;17.10;99.90
56332;DHT22;42237;53.340;6.812;2022-08-07T08:37:33;17.20;99.90
56332;DHT22;42237;53.340;6.812;2022-08-07T08:40:00;17.30;99.90
56332;DHT22;42237;53.340;6.812;2022-08-07T08:42:40;17.30;99.90
56332;DHT22;42237;53.340;6.812;2022-08-07T08:50:37;17.50;99.90
56332;DHT22;42237;53.340;6.812;2022-08-07T08:55:43;17.60;99.90
56332;DHT22;42237;53.340;6.812;2022-08-07T08:58:26;17.70;99.90
56332;DHT22;42237;53.340;6.812;2022-08-07T09:00:59;17.80;99.90
56332;DHT22;42237;53.340;6.812;2022-08-07T09:03:43;17.90;99.90
56332;DHT22;42237;53.340;6.812;2022-08-07T09:17:42;18.00;99.90
56332;DHT22;42237;53.340;6.812;2022-08-07T09:20:28;18.10;99.90
56332;DHT22;42237;53.340;6.812;2022-08-07T09:23:05;18.10;99.90
56332;DHT22;42237;53.340;6.812;2022-08-07T09:26:09;18.20;99.90
56332;DHT22;42237;53.340;6.812;2022-08-07T09:28:39;18.30;99.90
56332;DHT22;42237;53.340;6.812;2022-08-07T09:31:29;18.40;99.90
56332;DHT22;42237;53.340;6.812;2022-08-07T09:39:47;18.70;99.90
56332;DHT22;42237;53.340;6.812;2022-08-07T09:45:13;19.00;99.90
56332;DHT22;42237;53.340;6.812;2022-08-07T09:53:04;19.20;99.90
56332;DHT22;42237;53.340;6.812;2022-08-07T10:09:27;19.10;99.90
56332;DHT22;42237;53.340;6.812;2022-08-07T10:12:35;19.20;99.00
56332;DHT22;42237;53.340;6.812;2022-08-07T10:20:46;19.20;99.70
56332;DHT22;42237;53.340;6.812;2022-08-07T10:37:05;19.70;98.50
56332;DHT22;42237;53.340;6.812;2022-08-07T10:39:55;19.80;98.70
56332;DHT22;42237;53.340;6.812;2022-08-07T10:45:01;19.90;97.80
56332;DHT22;42237;53.340;6.812;2022-08-07T10:58:11;20.20;97.40
56332;DHT22;42237;53.340;6.812;2022-08-07T11:00:57;20.30;96.90
56332;DHT22;42237;53.340;6.812;2022-08-07T11:03:36;20.30;95.40
56332;DHT22;42237;53.340;6.812;2022-08-07T11:06:13;20.30;95.70
56332;DHT22;42237;53.340;6.812;2022-08-07T11:09:04;20.30;95.50
56332;DHT22;42237;53.340;6.812;2022-08-07T11:11:36;20.30;94.90
56332;DHT22;42237;53.340;6.812;2022-08-07T11:14:12;20.40;95.70
56332;DHT22;42237;53.340;6.812;2022-08-07T11:16:53;20.50;94.90
56332;DHT22;42237;53.340;6.812;2022-08-07T11:25:22;20.70;94.30
56332;DHT22;42237;53.340;6.812;2022-08-07T11:28:14;20.50;93.50
56332;DHT22;42237;53.340;6.812;2022-08-07T11:31:17;20.50;94.20
56332;DHT22;42237;53.340;6.812;2022-08-07T11:33:56;20.50;94.70
56332;DHT22;42237;53.340;6.812;2022-08-07T11:36:37;20.60;94.50
56332;DHT22;42237;53.340;6.812;2022-08-07T11:42:02;20.90;94.70
56332;DHT22;42237;53.340;6.812;2022-08-07T11:57:53;21.80;92.50
56332;DHT22;42237;53.340;6.812;2022-08-07T12:00:33;21.90;92.40
56332;DHT22;42237;53.340;6.812;2022-08-07T12:03:23;22.10;91.80
56332;DHT22;42237;53.340;6.812;2022-08-07T12:08:51;22.20;91.30
56332;DHT22;42237;53.340;6.812;2022-08-07T12:11:34;22.20;91.80
56332;DHT22;42237;53.340;6.812;2022-08-07T12:14:14;22.10;91.10
56332;DHT22;42237;53.340;6.812;2022-08-07T12:16:55;22.00;91.10
56332;DHT22;42237;53.340;6.812;2022-08-07T12:22:13;21.80;91.00
56332;DHT22;42237;53.340;6.812;2022-08-07T12:27:51;21.70;91.50
56332;DHT22;42237;53.340;6.812;2022-08-07T12:30:23;21.50;91.40
56332;DHT22;42237;53.340;6.812;2022-08-07T12:32:59;21.50;92.00
56332;DHT22;42237;53.340;6.812;2022-08-07T12:35:27;21.50;92.10
56332;DHT22;42237;53.340;6.812;2022-08-07T12:37:56;21.40;91.90
56332;DHT22;42237;53.340;6.812;2022-08-07T12:40:29;21.30;91.80
56332;DHT22;42237;53.340;6.812;2022-08-07T12:42:59;21.30;91.70
56332;DHT22;42237;53.340;6.812;2022-08-07T12:45:29;21.30;92.00
56332;DHT22;42237;53.340;6.812;2022-08-07T12:48:15;21.30;92.30
56332;DHT22;42237;53.340;6.812;2022-08-07T12:51:03;21.30;93.10
56332;DHT22;42237;53.340;6.812;2022-08-07T12:56:30;21.30;93.60
56332;DHT22;42237;53.340;6.812;2022-08-07T12:58:58;21.30;94.10
56332;DHT22;42237;53.340;6.812;2022-08-07T13:10:06;21.50;94.40
56332;DHT22;42237;53.340;6.812;2022-08-07T13:18:06;21.50;94.20
56332;DHT22;42237;53.340;6.812;2022-08-07T13:20:43;21.50;94.60
56332;DHT22;42237;53.340;6.812;2022-08-07T13:23:18;21.50;94.50
56332;DHT22;42237;53.340;6.812;2022-08-07T13:25:53;21.50;93.60
56332;DHT22;42237;53.340;6.812;2022-08-07T13:28:25;21.40;94.00
56332;DHT22;42237;53.340;6.812;2022-08-07T13:31:19;21.40;93.90
56332;DHT22;42237;53.340;6.812;2022-08-07T13:34:10;21.30;93.70
56332;DHT22;42237;53.340;6.812;2022-08-07T13:36:51;21.30;92.60
56332;DHT22;42237;53.340;6.812;2022-08-07T13:39:35;21.20;93.40
56332;DHT22;42237;53.340;6.812;2022-08-07T13:42:05;21.20;93.50
56332;DHT22;42237;53.340;6.812;2022-08-07T13:44:37;21.20;93.50
56332;DHT22;42237;53.340;6.812;2022-08-07T13:47:06;21.30;93.50
56332;DHT22;42237;53.340;6.812;2022-08-07T13:49:36;21.20;93.40
56332;DHT22;42237;53.340;6.812;2022-08-07T13:52:06;21.30;93.80
56332;DHT22;42237;53.340;6.812;2022-08-07T13:54:33;21.30;93.60
56332;DHT22;42237;53.340;6.812;2022-08-07T13:57:03;21.20;93.50
56332;DHT22;42237;53.340;6.812;2022-08-07T13:59:34;21.10;93.00
56332;DHT22;42237;53.340;6.812;2022-08-07T14:02:01;21.20;93.20
56332;DHT22;42237;53.340;6.812;2022-08-07T14:04:48;21.40;93.10
56332;DHT22;42237;53.340;6.812;2022-08-07T14:07:18;21.50;92.20
56332;DHT22;42237;53.340;6.812;2022-08-07T14:09:45;21.60;91.80
56332;DHT22;42237;53.340;6.812;2022-08-07T14:12:45;21.80;91.40
56332;DHT22;42237;53.340;6.812;2022-08-07T14:15:37;22.00;91.00
56332;DHT22;42237;53.340;6.812;2022-08-07T14:18:22;22.00;90.10
56332;DHT22;42237;53.340;6.812;2022-08-07T14:20:49;22.00;91.10
56332;DHT22;42237;53.340;6.812;2022-08-07T14:23:37;22.10;91.20
56332;DHT22;42237;53.340;6.812;2022-08-07T14:26:09;22.20;90.90
56332;DHT22;42237;53.340;6.812;2022-08-07T14:28:37;22.20;90.80
56332;DHT22;42237;53.340;6.812;2022-08-07T14:31:05;22.20;90.90
56332;DHT22;42237;53.340;6.812;2022-08-07T14:33:35;22.30;90.70
56332;DHT22;42237;53.340;6.812;2022-08-07T14:36:02;22.40;91.10
56332;DHT22;42237;53.340;6.812;2022-08-07T14:38:29;22.40;90.60
56332;DHT22;42237;53.340;6.812;2022-08-07T14:41:05;22.10;90.30
56332;DHT22;42237;53.340;6.812;2022-08-07T14:43:39;22.00;90.20
56332;DHT22;42237;53.340;6.812;2022-08-07T14:46:05;21.90;89.70
56332;DHT22;42237;53.340;6.812;2022-08-07T14:48:35;21.90;89.40
56332;DHT22;42237;53.340;6.812;2022-08-07T14:51:11;22.10;89.20
56332;DHT22;42237;53.340;6.812;2022-08-07T14:53:43;22.30;90.40
56332;DHT22;42237;53.340;6.812;2022-08-07T14:56:10;22.50;90.40
56332;DHT22;42237;53.340;6.812;2022-08-07T14:58:39;22.60;89.10
56332;DHT22;42237;53.340;6.812;2022-08-07T15:01:06;22.50;88.30
56332;DHT22;42237;53.340;6.812;2022-08-07T15:03:35;22.40;88.50
56332;DHT22;42237;53.340;6.812;2022-08-07T15:06:02;22.50;89.60
56332;DHT22;42237;53.340;6.812;2022-08-07T15:08:33;22.60;90.10
56332;DHT22;42237;53.340;6.812;2022-08-07T15:11:10;22.60;89.80
56332;DHT22;42237;53.340;6.812;2022-08-07T15:16:15;22.30;90.40
56332;DHT22;42237;53.340;6.812;2022-08-07T15:18:44;22.30;90.90
56332;DHT22;42237;53.340;6.812;2022-08-07T15:21:17;22.30;91.20
56332;DHT22;42237;53.340;6.812;2022-08-07T15:23:46;22.40;91.00
56332;DHT22;42237;53.340;6.812;2022-08-07T15:26:18;22.50;91.00
56332;DHT22;42237;53.340;6.812;2022-08-07T15:28:46;22.40;90.80
56332;DHT22;42237;53.340;6.812;2022-08-07T15:31:15;22.40;91.40
56332;DHT22;42237;53.340;6.812;2022-08-07T15:33:41;22.50;91.10
56332;DHT22;42237;53.340;6.812;2022-08-07T15:36:08;22.40;91.10
56332;DHT22;42237;53.340;6.812;2022-08-07T15:38:38;22.30;91.10
56332;DHT22;42237;53.340;6.812;2022-08-07T15:41:12;22.30;90.70
56332;DHT22;42237;53.340;6.812;2022-08-07T15:43:43;22.40;91.40
56332;DHT22;42237;53.340;6.812;2022-08-07T15:46:19;22.60;91.30
56332;DHT22;42237;53.340;6.812;2022-08-07T15:48:47;22.80;91.30
56332;DHT22;42237;53.340;6.812;2022-08-07T15:51:15;23.00;90.50
56332;DHT22;42237;53.340;6.812;2022-08-07T15:53:53;23.10;90.20
56332;DHT22;42237;53.340;6.812;2022-08-07T15:56:28;23.20;89.40
56332;DHT22;42237;53.340;6.812;2022-08-07T15:59:00;23.40;89.00
56332;DHT22;42237;53.340;6.812;2022-08-07T16:01:38;23.40;87.50
56332;DHT22;42237;53.340;6.812;2022-08-07T16:04:07;23.40;88.30
56332;DHT22;42237;53.340;6.812;2022-08-07T16:06:49;23.30;88.30
56332;DHT22;42237;53.340;6.812;2022-08-07T16:17:42;22.70;90.30
56332;DHT22;42237;53.340;6.812;2022-08-07T16:31:51;22.80;91.10
56332;DHT22;42237;53.340;6.812;2022-08-07T16:34:35;22.80;90.80
56332;DHT22;42237;53.340;6.812;2022-08-07T16:51:55;21.80;93.50
56332;DHT22;42237;53.340;6.812;2022-08-07T16:57:38;21.40;94.10
56332;DHT22;42237;53.340;6.812;2022-08-07T17:00:14;21.30;94.50
56332;DHT22;42237;53.340;6.812;2022-08-07T17:07:55;21.30;95.20
56332;DHT22;42237;53.340;6.812;2022-08-07T17:16:04;21.10;95.50
56332;DHT22;42237;53.340;6.812;2022-08-07T17:18:36;21.10;95.70
56332;DHT22;42237;53.340;6.812;2022-08-07T17:21:10;21.00;95.60
56332;DHT22;42237;53.340;6.812;2022-08-07T17:26:44;21.00;95.70
56332;DHT22;42237;53.340;6.812;2022-08-07T17:29:15;21.00;95.70
56332;DHT22;42237;53.340;6.812;2022-08-07T17:31:48;21.00;95.90
56332;DHT22;42237;53.340;6.812;2022-08-07T17:34:33;21.00;95.90
56332;DHT22;42237;53.340;6.812;2022-08-07T17:37:10;20.90;95.70
56332;DHT22;42237;53.340;6.812;2022-08-07T17:39:48;20.90;95.80
56332;DHT22;42237;53.340;6.812;2022-08-07T17:45:09;20.80;96.40
56332;DHT22;42237;53.340;6.812;2022-08-07T17:47:49;20.80;96.40
56332;DHT22;42237;53.340;6.812;2022-08-07T17:58:42;20.40;96.30
56332;DHT22;42237;53.340;6.812;2022-08-07T18:01:43;20.40;96.60
56332;DHT22;42237;53.340;6.812;2022-08-07T18:04:46;20.30;96.40
56332;DHT22;42237;53.340;6.812;2022-08-07T18:07:27;20.20;96.60
56332;DHT22;42237;53.340;6.812;2022-08-07T18:10:02;20.10;96.80
56332;DHT22;42237;53.340;6.812;2022-08-07T18:18:25;19.90;96.90
56332;DHT22;42237;53.340;6.812;2022-08-07T18:21:00;19.80;96.80
56332;DHT22;42237;53.340;6.812;2022-08-07T18:24:19;19.70;96.90
56332;DHT22;42237;53.340;6.812;2022-08-07T18:29:08;19.60;97.10
56332;DHT22;42237;53.340;6.812;2022-08-07T18:34:38;19.40;97.60
56332;DHT22;42237;53.340;6.812;2022-08-07T18:46:39;19.00;98.50
56332;DHT22;42237;53.340;6.812;2022-08-07T19:00:15;18.60;99.90
56332;DHT22;42237;53.340;6.812;2022-08-07T19:02:43;18.50;99.90
56332;DHT22;42237;53.340;6.812;2022-08-07T19:05:28;18.50;99.90
56332;DHT22;42237;53.340;6.812;2022-08-07T19:08:06;18.40;99.90
56332;DHT22;42237;53.340;6.812;2022-08-07T19:10:40;18.30;99.90
56332;DHT22;42237;53.340;6.812;2022-08-07T19:16:16;18.10;99.90
56332;DHT22;42237;53.340;6.812;2022-08-07T19:19:01;18.00;99.90
56332;DHT22;42237;53.340;6.812;2022-08-07T19:21:42;17.80;99.90
56332;DHT22;42237;53.340;6.812;2022-08-07T19:24:14;17.80;99.90
56332;DHT22;42237;53.340;6.812;2022-08-07T19:26:48;17.70;99.90
56332;DHT22;42237;53.340;6.812;2022-08-07T19:29:14;17.60;99.90
56332;DHT22;42237;53.340;6.812;2022-08-07T19:31:49;17.50;99.90
56332;DHT22;42237;53.340;6.812;2022-08-07T19:34:17;17.40;99.90
56332;DHT22;42237;53.340;6.812;2022-08-07T19:36:46;17.30;99.90
56332;DHT22;42237;53.340;6.812;2022-08-07T19:39:15;17.30;99.90
56332;DHT22;42237;53.340;6.812;2022-08-07T19:41:44;17.20;99.90
56332;DHT22;42237;53.340;6.812;2022-08-07T19:44:12;17.10;99.90
56332;DHT22;42237;53.340;6.812;2022-08-07T19:46:43;17.10;99.90
56332;DHT22;42237;53.340;6.812;2022-08-07T19:49:16;17.00;99.90